CIET2: Wichita River Nr Charlie, TX

Data processed at Tue Jul 29 23:56:49 2014 Central Daylight Time


All information presented herein is the property of the government of the United States of America and may be revised or deleted at any time without prior notice.
Dissemination of this information without the expressed written consent of the Public Affairs Office, Tulsa District U.S. Army Corps of Engineers is strictly prohibited.
These data are gathered electronically and, as presented, have not undergone any form of quality control. These data are not guaranteed to be valid or correct.
Go to home page.
Go to station list.
Go to station map.

Upstream stations:

Downstream station: Previous Day
Next Day
Current Day

Display graphics.
Display DCP transmissions.


    
    SHEF ID:       CIET2     Wichita River Nr Charlie, TX
    STATION TYPE:  STREAM GAGE
    Regulation Limits:  Stage = -901.00, Flow =    -901
    
                   PRECIP     STAGE  RIV-FLOW  WTR-TEMP   CONDUCT   VOLTAGE
                   INCHES      FEET       CFS     DEG-F     US/CM     VOLTS
                     GOES      GOES      GOES      GOES      GOES      GOES
       (Cen)
    07/29 01:00      0.00      4.61        26     81.36       984     11.95
    07/29 02:00      0.00      4.61        26     81.07       989     11.95
    07/29 03:00      0.00      4.61        26     80.78       991     11.95
    07/29 04:00      0.00      4.61        26     80.46       994     11.95
    07/29 05:00      0.00      4.61        26     80.19       999     11.95
    07/29 06:00      0.00      4.62        27     79.93      1005     11.95
    07/29 07:00      0.00      4.70        35     79.66      1010     11.95
    07/29 08:00      0.00      4.92        62     79.45      1014     11.95
    07/29 09:00      0.00      5.09        90     79.27      1019     11.95
    07/29 10:00      0.00      5.20       114     79.07      1028     12.01
    07/29 11:00      0.00      5.26       129     78.80      1040     12.01
    07/29 12:00      0.00      5.29       137     78.71      1028     12.07
    07/29 13:00      0.00      5.29       137     78.53      1034     12.01
    07/29 14:00      0.00      5.28       134     78.64      1059     12.07
    07/29 15:00      0.00      5.27       132     78.84      1078     12.07
    07/29 16:00      0.00      5.24       124     79.11      1128     12.13
    07/29 17:00      0.00      5.21       117     79.54      1169     12.13
    07/29 18:00      0.00      5.18       110     79.72      1203     12.13
    07/29 19:00      0.00      5.14       101     79.84      1232     12.13
    07/29 20:00      0.00      5.11        94     79.72      1251     12.07
    07/29 21:00      0.00      5.07        86     79.54      1283     12.07
    07/29 22:00      0.00      5.04        81     79.39      1327     12.01
    07/29 23:00      0.00      5.03        79     79.23      1371     12.01
    07/30 00:00      ----      ----      ----      ----      ----      ----